This is the latest recevied weather packets stored in our database for station/object KC0FGX-1. If no packets are shown the sender has not sent any weather packets the latest 10 day(s).
| Time | Temp. | Humidity | Pressure | Rain* | Wind** | Luminosity | Snow |
|---|---|---|---|---|---|---|---|
| 1777525821 | 3.89° C | 92% | 1017.7 hPa | 0 mm | - | - | - |
| 1777524822 | 3.89° C | 90% | 1017.5 hPa | 0 mm | - | - | - |
| 1777524411 | 3.89° C | 90% | 1017.6 hPa | 0 mm | - | - | - |
| 1777523821 | 4.44° C | 90% | 1017.7 hPa | 0 mm | - | - | - |
| 1777522822 | 4.44° C | 90% | 1017.7 hPa | 0 mm | - | - | - |
| 1777522610 | 4.44° C | 89% | 1017.7 hPa | 0 mm | - | - | - |
| 1777521821 | 4.44° C | 87% | 1017.7 hPa | 0 mm | - | - | - |
| 1777520821 | 5° C | 88% | 1017.6 hPa | 0 mm | - | - | - |
| 1777520811 | 5° C | 87% | 1017.6 hPa | 0 mm | - | - | - |
| 1777519821 | 5.56° C | 85% | 1017.7 hPa | 0 mm | - | - | - |
| 1777519010 | 5.56° C | 85% | 1017.8 hPa | 0 mm | - | - | - |
| 1777518822 | 6.11° C | 85% | 1017.8 hPa | 0 mm | - | - | - |
| 1777517821 | 6.11° C | 81% | 1017.7 hPa | 0 mm | - | - | - |
| 1777517210 | 6.67° C | 80% | 1017.5 hPa | 0 mm | - | - | - |
| 1777516823 | 6.67° C | 78% | 1017.5 hPa | 0 mm | - | - | - |
| 1777515821 | 7.78° C | 73% | 1017.4 hPa | 0 mm | - | - | - |
| 1777515410 | 8.33° C | 72% | 1017.3 hPa | 0 mm | - | - | - |
| 1777514821 | 8.33° C | 69% | 1017.3 hPa | 0 mm | - | - | - |
| 1777513822 | 9.44° C | 64% | 1017 hPa | 0 mm | - | - | - |
| 1777513610 | 10° C | 62% | 1017 hPa | 0 mm | - | - | - |
| 1777511821 | 11.67° C | 55% | 1016.5 hPa | 0 mm | - | - | - |
| 1777511810 | 11.67° C | 55% | 1016.5 hPa | 0 mm | - | - | - |
| 1777510821 | 12.22° C | 54% | 1016.3 hPa | 0 mm | - | - | - |
| 1777508210 | 12.78° C | 53% | 1016.1 hPa | 0 mm | - | - | - |
| 1777501010 | 13.89° C | 52% | 1016 hPa | 0 mm | - | - | - |
* Rain latest hour (hover to see other rain measurements)
** Current wind speed in m/s (hover to see current wind gust speed)